createdAt,value
2018-12-14T00:01:41.641Z,0.60
2018-12-14T00:04:07.796Z,0.60
2018-12-14T00:06:33.984Z,0.53
2018-12-14T00:09:00.116Z,0.50
2018-12-14T00:11:26.299Z,0.30
2018-12-14T00:13:52.471Z,0.57
2018-12-14T00:16:18.616Z,0.40
2018-12-14T00:18:44.757Z,0.67
2018-12-14T00:21:10.972Z,0.77
2018-12-14T00:23:37.122Z,0.73
2018-12-14T00:26:03.298Z,0.70
2018-12-14T00:28:29.463Z,0.40
2018-12-14T00:30:56.199Z,1.00
2018-12-14T00:33:22.349Z,0.70
2018-12-14T00:35:48.727Z,0.60
2018-12-14T00:38:14.872Z,0.77
2018-12-14T00:40:41.025Z,0.70
2018-12-14T00:43:07.197Z,1.07
2018-12-14T00:45:33.367Z,0.60
2018-12-14T00:47:59.521Z,0.77
2018-12-14T00:50:25.650Z,0.77
2018-12-14T00:52:51.795Z,0.70
2018-12-14T00:55:17.935Z,0.90
2018-12-14T00:57:44.076Z,0.60
2018-12-14T01:00:10.719Z,0.53
2018-12-14T01:02:37.032Z,1.10
2018-12-14T01:05:04.728Z,0.70
2018-12-14T01:07:30.858Z,0.80
2018-12-14T01:09:56.997Z,0.87
2018-12-14T01:12:23.172Z,0.70
2018-12-14T01:14:49.348Z,0.70
2018-12-14T01:17:15.579Z,0.70
2018-12-14T01:19:41.783Z,0.70
2018-12-14T01:22:07.951Z,0.50
2018-12-14T01:24:34.110Z,0.53
2018-12-14T01:27:01.059Z,0.70
2018-12-14T01:29:27.235Z,0.40
2018-12-14T01:31:53.396Z,0.50
2018-12-14T01:34:19.578Z,0.77
2018-12-14T01:36:45.726Z,0.50
2018-12-14T01:39:11.910Z,0.73
2018-12-14T01:41:38.056Z,0.87
2018-12-14T01:44:04.237Z,0.40
2018-12-14T01:46:30.387Z,0.73
2018-12-14T01:48:56.540Z,0.50
2018-12-14T01:51:22.678Z,0.80
2018-12-14T01:53:48.854Z,0.60
2018-12-14T01:56:15.026Z,0.63
2018-12-14T01:58:41.301Z,0.67
2018-12-14T02:01:07.460Z,0.53
2018-12-14T02:03:33.604Z,0.70
2018-12-14T02:05:59.747Z,0.70
2018-12-14T02:08:25.915Z,0.43
2018-12-14T02:10:52.090Z,0.90
2018-12-14T02:13:18.254Z,0.60
2018-12-14T02:15:44.539Z,0.83
2018-12-14T02:18:10.707Z,0.57
2018-12-14T02:20:36.892Z,0.73
2018-12-14T02:23:03.080Z,0.77
2018-12-14T02:25:29.249Z,1.10
2018-12-14T02:27:55.383Z,0.97
2018-12-14T02:30:35.726Z,0.63
2018-12-14T02:33:01.895Z,0.63
2018-12-14T02:35:28.048Z,0.70
2018-12-14T02:37:54.456Z,1.00
2018-12-14T02:40:20.624Z,1.23
2018-12-14T02:42:46.778Z,0.67
2018-12-14T02:45:12.971Z,0.93
2018-12-14T02:47:39.120Z,1.07
2018-12-14T02:50:05.500Z,0.87
2018-12-14T02:52:31.655Z,0.80
2018-12-14T02:54:58.682Z,0.80
2018-12-14T02:57:24.830Z,0.80
2018-12-14T02:59:50.979Z,0.87
2018-12-14T03:02:17.178Z,0.50
2018-12-14T03:04:43.357Z,0.70
2018-12-14T03:07:09.511Z,0.70
2018-12-14T03:09:35.641Z,0.67
2018-12-14T03:12:01.800Z,0.57
2018-12-14T03:14:27.942Z,0.80
2018-12-14T03:16:54.500Z,0.67
2018-12-14T03:19:20.696Z,0.80
2018-12-14T03:21:46.872Z,0.80
2018-12-14T03:24:13.027Z,1.00
2018-12-14T03:26:39.184Z,1.33
2018-12-14T03:29:05.365Z,1.03
2018-12-14T03:31:31.537Z,1.10
2018-12-14T03:33:57.691Z,1.20
2018-12-14T03:36:23.875Z,2.33
2018-12-14T03:38:50.026Z,1.10
2018-12-14T03:41:16.169Z,1.20
2018-12-14T03:43:42.317Z,0.90
2018-12-14T03:46:08.458Z,0.93
2018-12-14T03:48:34.744Z,0.70
2018-12-14T03:51:00.863Z,0.83
2018-12-14T03:53:27.032Z,1.10
2018-12-14T03:55:53.179Z,0.80
2018-12-14T03:58:19.476Z,1.27
2018-12-14T04:00:45.871Z,1.20
2018-12-14T04:03:12.081Z,0.70
2018-12-14T04:05:38.476Z,0.60
2018-12-14T04:08:04.620Z,0.83
2018-12-14T04:10:30.765Z,1.17
2018-12-14T04:12:56.896Z,1.00
2018-12-14T04:15:23.065Z,0.70
2018-12-14T04:17:49.223Z,0.80
2018-12-14T04:20:15.363Z,1.07
2018-12-14T04:22:41.559Z,0.90
2018-12-14T04:25:07.705Z,0.63
2018-12-14T04:27:33.843Z,0.83
2018-12-14T04:29:59.976Z,1.63
2018-12-14T04:32:26.141Z,1.40
2018-12-14T04:34:52.288Z,1.13
2018-12-14T04:37:18.472Z,1.53
2018-12-14T04:39:44.627Z,1.70
2018-12-14T04:42:10.752Z,1.60
2018-12-14T04:44:37.763Z,1.43
2018-12-14T04:47:04.167Z,1.70
2018-12-14T04:49:30.617Z,1.00
2018-12-14T04:51:56.765Z,1.10
2018-12-14T04:54:23.118Z,1.07
2018-12-14T04:56:49.260Z,0.90
2018-12-14T04:59:15.383Z,1.00
2018-12-14T05:01:41.512Z,1.23
2018-12-14T05:04:07.664Z,1.40
2018-12-14T05:06:33.850Z,1.30
2018-12-14T05:08:59.995Z,1.17
2018-12-14T05:11:26.135Z,1.37
2018-12-14T05:13:52.299Z,1.00
2018-12-14T05:16:18.406Z,0.90
2018-12-14T05:18:44.535Z,1.23
2018-12-14T05:21:10.679Z,1.07
2018-12-14T05:23:36.795Z,1.37
2018-12-14T05:26:02.937Z,1.20
2018-12-14T05:28:29.056Z,0.60
2018-12-14T05:30:55.214Z,0.87
2018-12-14T05:33:21.356Z,0.70
2018-12-14T05:35:47.514Z,0.83
2018-12-14T05:38:13.626Z,0.57
2018-12-14T05:40:39.775Z,0.80
2018-12-14T05:43:05.892Z,0.80
2018-12-14T05:45:32.035Z,0.90
2018-12-14T05:47:58.170Z,1.03
2018-12-14T05:50:24.326Z,0.80
2018-12-14T05:52:50.478Z,0.80
2018-12-14T05:55:16.620Z,0.90
2018-12-14T05:57:42.741Z,0.73
2018-12-14T06:00:11.079Z,0.60
2018-12-14T06:02:37.200Z,0.53
2018-12-14T06:05:04.410Z,0.87
2018-12-14T06:07:30.551Z,0.50
2018-12-14T06:09:56.700Z,0.90
2018-12-14T06:12:23.004Z,0.70
2018-12-14T06:14:49.134Z,0.63
2018-12-14T06:17:15.278Z,0.63
2018-12-14T06:19:41.415Z,0.50
2018-12-14T06:22:07.547Z,0.90
2018-12-14T06:24:33.674Z,0.73
2018-12-14T06:26:59.821Z,0.80
2018-12-14T06:29:25.944Z,1.00
2018-12-14T06:31:52.098Z,0.60
2018-12-14T06:34:18.237Z,1.00
2018-12-14T06:36:44.389Z,1.10
2018-12-14T06:39:10.533Z,1.50
2018-12-14T06:41:36.828Z,1.43
2018-12-14T06:44:02.997Z,1.33
2018-12-14T06:46:30.102Z,1.07
2018-12-14T06:48:56.235Z,1.60
2018-12-14T06:51:22.379Z,1.03
2018-12-14T06:53:48.515Z,1.13
2018-12-14T06:56:14.639Z,1.20
2018-12-14T06:58:40.793Z,1.50
2018-12-14T07:01:06.957Z,0.90
2018-12-14T07:03:33.215Z,1.30
2018-12-14T07:05:59.347Z,1.10
2018-12-14T07:08:25.497Z,0.70
2018-12-14T07:10:51.795Z,0.90
2018-12-14T07:13:21.811Z,1.20
2018-12-14T07:15:46.123Z,0.73
2018-12-14T07:18:12.301Z,0.87
2018-12-14T07:20:38.679Z,0.97
2018-12-14T07:23:04.824Z,0.73
2018-12-14T07:25:30.952Z,0.90
2018-12-14T07:27:57.223Z,0.73
2018-12-14T07:30:23.378Z,0.70
2018-12-14T07:32:49.686Z,1.00
2018-12-14T07:35:15.843Z,0.80
2018-12-14T07:37:41.985Z,0.53
2018-12-14T07:40:08.143Z,0.93
2018-12-14T07:42:34.283Z,0.50
2018-12-14T07:45:00.422Z,0.60
2018-12-14T07:47:26.578Z,0.80
2018-12-14T07:49:52.731Z,0.43
2018-12-14T07:52:18.894Z,0.50
2018-12-14T07:54:45.056Z,0.60
2018-12-14T07:57:11.201Z,0.40
2018-12-14T07:59:37.346Z,1.00
2018-12-14T08:02:03.489Z,0.50
2018-12-14T08:04:29.875Z,0.50
2018-12-14T08:06:56.639Z,0.80
2018-12-14T08:09:22.766Z,0.80
2018-12-14T08:11:48.896Z,0.77
2018-12-14T08:14:15.049Z,0.60
2018-12-14T08:16:41.176Z,0.60
2018-12-14T08:19:07.306Z,0.70
2018-12-14T08:21:33.440Z,0.60
2018-12-14T08:23:59.587Z,0.70
2018-12-14T08:26:25.716Z,0.40
2018-12-14T08:28:51.847Z,0.47
2018-12-14T08:31:17.978Z,0.50
2018-12-14T08:33:44.115Z,0.70
2018-12-14T08:36:10.240Z,0.50
2018-12-14T08:38:36.382Z,0.50
2018-12-14T08:41:02.542Z,0.80
2018-12-14T08:43:28.663Z,0.80
2018-12-14T08:45:54.780Z,0.77
2018-12-14T08:48:21.073Z,0.67
2018-12-14T08:50:47.373Z,0.50
2018-12-14T08:53:13.752Z,0.83
2018-12-14T08:55:39.911Z,0.87
2018-12-14T08:58:06.069Z,0.83
2018-12-14T09:00:32.220Z,0.40
2018-12-14T09:02:58.349Z,0.73
2018-12-14T09:05:24.526Z,0.70
2018-12-14T09:07:50.641Z,0.80
2018-12-14T09:10:16.795Z,0.73
2018-12-14T09:12:42.952Z,0.77
2018-12-14T09:15:09.110Z,0.90
2018-12-14T09:17:35.248Z,0.40
2018-12-14T09:20:01.654Z,0.60
2018-12-14T09:22:27.890Z,0.63
2018-12-14T09:24:54.067Z,0.50
2018-12-14T09:27:20.215Z,0.67
2018-12-14T09:29:46.346Z,0.43
2018-12-14T09:32:12.494Z,0.53
2018-12-14T09:34:39.225Z,0.60
2018-12-14T09:37:05.375Z,0.60
2018-12-14T09:39:31.509Z,0.50
2018-12-14T09:41:57.643Z,0.57
2018-12-14T09:44:23.765Z,0.53
2018-12-14T09:46:49.901Z,1.07
2018-12-14T09:49:16.055Z,0.70
2018-12-14T09:51:42.213Z,0.73
2018-12-14T09:54:08.331Z,0.67
2018-12-14T09:56:34.462Z,0.50
2018-12-14T09:59:00.596Z,0.60
2018-12-14T10:01:26.729Z,0.50
2018-12-14T10:03:53.096Z,0.50
2018-12-14T10:06:19.227Z,0.60
2018-12-14T10:08:45.378Z,0.77
2018-12-14T10:11:11.547Z,0.70
2018-12-14T10:13:37.712Z,0.40
2018-12-14T10:16:04.025Z,0.90
2018-12-14T10:18:30.311Z,0.60
2018-12-14T10:20:56.454Z,0.90
2018-12-14T10:23:22.603Z,0.90
2018-12-14T10:25:48.761Z,0.50
2018-12-14T10:28:14.916Z,0.60
2018-12-14T10:30:41.039Z,0.43
2018-12-14T10:33:07.196Z,0.60
2018-12-14T10:35:33.369Z,0.87
2018-12-14T10:37:59.556Z,0.70
2018-12-14T10:40:25.726Z,0.70
2018-12-14T10:42:51.866Z,0.70
2018-12-14T10:45:18.151Z,0.67
2018-12-14T10:47:44.288Z,0.90
2018-12-14T10:50:11.168Z,0.63
2018-12-14T10:52:37.297Z,0.60
2018-12-14T10:55:04.797Z,0.70
2018-12-14T10:57:32.235Z,1.00
2018-12-14T10:59:58.427Z,0.90
2018-12-14T11:02:24.673Z,0.77
2018-12-14T11:04:50.813Z,0.60
2018-12-14T11:07:16.951Z,0.77
2018-12-14T11:09:43.105Z,1.10
2018-12-14T11:12:09.274Z,0.70
2018-12-14T11:14:35.415Z,0.67
2018-12-14T11:17:01.563Z,0.93
2018-12-14T11:19:27.743Z,0.80
2018-12-14T11:21:53.867Z,0.50
2018-12-14T11:24:20.015Z,0.50
2018-12-14T11:26:46.133Z,0.73
2018-12-14T11:29:12.283Z,0.57
2018-12-14T11:31:38.430Z,0.43
2018-12-14T11:34:04.580Z,0.60
2018-12-14T11:36:30.867Z,0.70
2018-12-14T11:38:57.009Z,0.50
2018-12-14T11:41:23.200Z,0.67
2018-12-14T11:43:49.318Z,0.40
2018-12-14T11:46:15.476Z,0.70
2018-12-14T11:48:41.631Z,0.70
2018-12-14T11:51:09.142Z,0.50
2018-12-14T11:53:35.297Z,0.93
2018-12-14T11:56:01.476Z,0.50
2018-12-14T11:58:27.617Z,0.40
2018-12-14T12:00:53.790Z,0.70
2018-12-14T12:03:19.933Z,0.50
2018-12-14T12:05:46.098Z,0.70
2018-12-14T12:08:12.811Z,0.53
2018-12-14T12:10:38.964Z,0.70
2018-12-14T12:13:05.129Z,0.60
2018-12-14T12:15:31.286Z,0.50
2018-12-14T12:17:57.433Z,0.70
2018-12-14T12:20:23.568Z,0.73
2018-12-14T12:22:49.721Z,0.50
2018-12-14T12:25:15.873Z,0.30
2018-12-14T12:27:42.074Z,0.50
2018-12-14T12:30:09.231Z,0.70
2018-12-14T12:32:35.392Z,0.40
2018-12-14T12:35:01.673Z,0.60
2018-12-14T12:37:27.905Z,1.00
2018-12-14T12:39:54.065Z,0.43
2018-12-14T12:42:20.223Z,0.43
2018-12-14T12:44:46.365Z,0.50
2018-12-14T12:47:12.522Z,0.60
2018-12-14T12:49:38.807Z,1.10
2018-12-14T12:52:05.034Z,0.40
2018-12-14T12:54:31.211Z,0.97
2018-12-14T12:56:57.360Z,0.83
2018-12-14T12:59:24.671Z,0.73
2018-12-14T13:01:51.676Z,0.77
2018-12-14T13:04:17.831Z,0.93
2018-12-14T13:06:44.017Z,0.77
2018-12-14T13:09:10.189Z,0.80
2018-12-14T13:11:36.336Z,0.70
2018-12-14T13:14:02.558Z,0.67
2018-12-14T13:16:28.686Z,0.60
2018-12-14T13:18:54.854Z,0.40
2018-12-14T13:21:21.021Z,0.70
2018-12-14T13:23:47.206Z,0.50
2018-12-14T13:26:13.932Z,0.70
2018-12-14T13:28:40.251Z,0.70
2018-12-14T13:31:06.417Z,0.70
2018-12-14T13:33:32.805Z,0.83
2018-12-14T13:35:58.980Z,0.47
2018-12-14T13:38:25.118Z,0.63
2018-12-14T13:40:51.267Z,1.00
2018-12-14T13:43:17.538Z,0.63
2018-12-14T13:45:43.719Z,0.70
2018-12-14T13:48:09.931Z,0.70
2018-12-14T13:50:36.199Z,0.90
2018-12-14T13:53:02.401Z,0.80
2018-12-14T13:55:28.564Z,1.10
2018-12-14T13:57:54.739Z,0.60
2018-12-14T14:00:21.648Z,0.80
2018-12-14T14:02:47.952Z,1.17
2018-12-14T14:05:14.119Z,0.90
2018-12-14T14:07:40.312Z,0.90
2018-12-14T14:10:06.603Z,0.90
2018-12-14T14:12:32.767Z,0.80
2018-12-14T14:14:59.158Z,0.70
2018-12-14T14:17:25.301Z,0.97
2018-12-14T14:19:52.364Z,0.70
2018-12-14T14:22:18.630Z,0.67
2018-12-14T14:24:44.772Z,0.43
2018-12-14T14:27:10.935Z,1.03
2018-12-14T14:29:37.109Z,0.50
2018-12-14T14:32:03.265Z,0.67
2018-12-14T14:34:29.422Z,0.83
2018-12-14T14:36:55.634Z,0.90
2018-12-14T14:39:21.788Z,0.53
2018-12-14T14:41:47.936Z,0.90
2018-12-14T14:44:14.948Z,1.27
2018-12-14T14:46:41.106Z,1.03
2018-12-14T14:49:07.295Z,0.70
2018-12-14T14:51:33.719Z,0.70
2018-12-14T14:53:59.861Z,1.93
2018-12-14T14:56:26.060Z,0.80
2018-12-14T14:58:52.254Z,1.23
2018-12-14T15:01:18.463Z,1.03
2018-12-14T15:03:44.614Z,1.30
2018-12-14T15:06:10.783Z,0.93
2018-12-14T15:08:36.944Z,1.00
2018-12-14T15:11:03.140Z,0.87
2018-12-14T15:13:29.350Z,0.83
2018-12-14T15:15:55.534Z,0.60
2018-12-14T15:18:21.689Z,0.80
2018-12-14T15:20:47.857Z,0.80
2018-12-14T15:23:14.023Z,0.60
2018-12-14T15:25:40.204Z,0.60
2018-12-14T15:28:06.348Z,0.50
2018-12-14T15:30:32.517Z,0.90
2018-12-14T15:32:58.662Z,0.93
2018-12-14T15:35:24.960Z,0.90
2018-12-14T15:37:51.243Z,0.70
2018-12-14T15:40:17.371Z,0.70
2018-12-14T15:42:43.506Z,0.77
2018-12-14T15:45:13.135Z,0.43
2018-12-14T15:47:37.848Z,0.90
2018-12-14T15:50:04.263Z,0.87
2018-12-14T15:52:30.515Z,0.80
2018-12-14T15:54:56.687Z,1.10
2018-12-14T15:57:22.827Z,1.50
2018-12-14T15:59:48.992Z,0.77
2018-12-14T16:02:15.165Z,0.73
2018-12-14T16:04:41.303Z,1.37
2018-12-14T16:07:07.605Z,0.97
2018-12-14T16:09:33.768Z,0.60
2018-12-14T16:11:59.971Z,0.57
2018-12-14T16:14:26.316Z,0.60
2018-12-14T16:16:52.509Z,0.63
2018-12-14T16:19:18.708Z,0.90
2018-12-14T16:21:45.004Z,0.83
2018-12-14T16:24:11.195Z,0.60
2018-12-14T16:26:37.395Z,0.67
2018-12-14T16:29:03.535Z,0.90
2018-12-14T16:31:29.949Z,0.73
2018-12-14T16:33:56.142Z,0.70
2018-12-14T16:36:22.299Z,0.90
2018-12-14T16:38:48.455Z,0.80
2018-12-14T16:41:14.614Z,0.63
2018-12-14T16:43:40.776Z,0.80
2018-12-14T16:46:06.943Z,0.70
2018-12-14T16:48:33.130Z,0.67
2018-12-14T16:50:59.307Z,0.43
2018-12-14T16:53:25.513Z,1.03
2018-12-14T16:55:51.654Z,0.83
2018-12-14T16:58:17.804Z,0.83
2018-12-14T17:00:43.991Z,0.80
2018-12-14T17:03:10.151Z,0.80
2018-12-14T17:05:36.317Z,0.90
2018-12-14T17:08:02.628Z,0.80
2018-12-14T17:10:28.759Z,0.67
2018-12-14T17:12:54.932Z,0.90
2018-12-14T17:15:21.104Z,1.03
2018-12-14T17:17:47.309Z,0.77
2018-12-14T17:20:13.476Z,0.63
2018-12-14T17:22:39.675Z,0.87
2018-12-14T17:25:06.256Z,0.90
2018-12-14T17:27:32.423Z,0.90
2018-12-14T17:29:58.591Z,1.00
2018-12-14T17:32:24.732Z,0.80
2018-12-14T17:34:50.888Z,0.70
2018-12-14T17:37:17.028Z,1.00
2018-12-14T17:39:43.232Z,0.60
2018-12-14T17:42:09.419Z,0.80
2018-12-14T17:44:35.592Z,0.73
2018-12-14T17:47:01.991Z,0.83
2018-12-14T17:49:28.123Z,0.80
2018-12-14T17:51:54.314Z,0.80
2018-12-14T17:54:20.443Z,1.07
2018-12-14T17:56:46.604Z,0.93
2018-12-14T17:59:12.754Z,1.00
2018-12-14T18:01:39.168Z,0.60
2018-12-14T18:04:05.328Z,1.30
2018-12-14T18:06:31.493Z,0.57
2018-12-14T18:08:57.657Z,0.63
2018-12-14T18:11:23.830Z,0.97
2018-12-14T18:13:50.035Z,0.70
2018-12-14T18:16:16.651Z,0.70
2018-12-14T18:18:42.894Z,1.17
2018-12-14T18:21:09.064Z,1.27
2018-12-14T18:23:35.195Z,0.90
2018-12-14T18:26:01.347Z,1.03
2018-12-14T18:28:27.492Z,0.70
2018-12-14T18:30:53.787Z,0.80
2018-12-14T18:33:19.945Z,0.90
2018-12-14T18:35:46.143Z,1.07
2018-12-14T18:38:12.298Z,1.57
2018-12-14T18:40:38.489Z,1.07
2018-12-14T18:43:04.659Z,1.33
2018-12-14T18:45:30.819Z,1.00
2018-12-14T18:47:56.983Z,1.37
2018-12-14T18:50:23.151Z,0.90
2018-12-14T18:52:49.330Z,1.20
2018-12-14T18:55:15.488Z,1.07
2018-12-14T18:57:41.660Z,1.40
2018-12-14T19:00:08.464Z,1.00
2018-12-14T19:02:34.635Z,0.93
2018-12-14T19:05:00.811Z,1.33
2018-12-14T19:07:26.984Z,1.00
2018-12-14T19:09:53.387Z,0.90
2018-12-14T19:12:20.209Z,1.20
2018-12-14T19:14:46.358Z,1.07
2018-12-14T19:17:12.504Z,1.07
2018-12-14T19:19:38.699Z,1.37
2018-12-14T19:22:04.836Z,1.33
2018-12-14T19:24:30.999Z,1.13
2018-12-14T19:26:57.198Z,1.50
2018-12-14T19:29:23.334Z,0.80
2018-12-14T19:31:49.499Z,1.07
2018-12-14T19:34:15.647Z,1.00
2018-12-14T19:36:41.837Z,1.30
2018-12-14T19:39:08.244Z,1.37
2018-12-14T19:41:34.393Z,1.03
2018-12-14T19:44:00.535Z,1.60
2018-12-14T19:46:26.712Z,1.23
2018-12-14T19:48:52.855Z,1.73
2018-12-14T19:51:19.002Z,1.50
2018-12-14T19:53:45.147Z,1.27
2018-12-14T19:56:11.354Z,1.30
2018-12-14T19:58:37.526Z,1.13
2018-12-14T20:01:03.677Z,1.40
2018-12-14T20:03:29.867Z,1.07
2018-12-14T20:05:56.015Z,0.80
2018-12-14T20:08:22.179Z,1.23
2018-12-14T20:10:48.642Z,0.80
2018-12-14T20:13:15.033Z,0.90
2018-12-14T20:15:41.179Z,1.10
2018-12-14T20:18:07.353Z,0.70
2018-12-14T20:20:34.552Z,1.00
2018-12-14T20:23:00.707Z,0.90
2018-12-14T20:25:27.627Z,1.10
2018-12-14T20:27:53.783Z,1.20
2018-12-14T20:30:20.168Z,1.00
2018-12-14T20:32:46.326Z,1.23
2018-12-14T20:35:12.805Z,1.37
2018-12-14T20:37:38.964Z,0.90
2018-12-14T20:40:05.465Z,1.37
2018-12-14T20:42:31.658Z,1.37
2018-12-14T20:44:57.801Z,1.50
2018-12-14T20:47:23.935Z,1.20
2018-12-14T20:49:50.116Z,1.30
2018-12-14T20:52:16.331Z,1.13
2018-12-14T20:54:42.475Z,1.30
2018-12-14T20:57:08.627Z,1.43
2018-12-14T20:59:34.749Z,1.13
2018-12-14T21:02:00.890Z,1.20
2018-12-14T21:04:27.054Z,0.90
2018-12-14T21:06:53.223Z,1.00
2018-12-14T21:09:19.395Z,1.33
2018-12-14T21:11:45.546Z,1.20
2018-12-14T21:14:11.688Z,1.10
2018-12-14T21:16:38.429Z,1.17
2018-12-14T21:19:04.604Z,1.13
2018-12-14T21:21:30.751Z,1.30
2018-12-14T21:23:56.912Z,1.50
2018-12-14T21:26:23.067Z,0.87
2018-12-14T21:28:49.219Z,1.20
2018-12-14T21:31:15.351Z,1.47
2018-12-14T21:33:41.511Z,1.50
2018-12-14T21:36:07.627Z,1.30
2018-12-14T21:38:33.789Z,1.60
2018-12-14T21:40:59.921Z,1.20
2018-12-14T21:43:26.979Z,1.67
2018-12-14T21:45:53.101Z,1.57
2018-12-14T21:48:19.257Z,1.40
2018-12-14T21:50:45.407Z,1.50
2018-12-14T21:53:14.611Z,1.77
2018-12-14T21:55:39.766Z,1.63
2018-12-14T21:58:05.923Z,1.60
2018-12-14T22:00:32.063Z,1.30
2018-12-14T22:02:58.211Z,1.40
2018-12-14T22:05:24.366Z,1.40
2018-12-14T22:07:50.503Z,1.83
2018-12-14T22:10:16.654Z,1.60
2018-12-14T22:12:42.776Z,1.70
2018-12-14T22:15:09.061Z,1.90
2018-12-14T22:17:35.182Z,1.40
2018-12-14T22:20:01.384Z,1.33
2018-12-14T22:22:27.544Z,1.60
2018-12-14T22:24:53.663Z,1.43
2018-12-14T22:27:19.797Z,1.60
2018-12-14T22:29:45.958Z,1.57
2018-12-14T22:32:12.119Z,1.60
2018-12-14T22:34:38.240Z,1.53
2018-12-14T22:37:04.358Z,1.40
2018-12-14T22:39:30.876Z,1.37
2018-12-14T22:41:57.574Z,1.57
2018-12-14T22:44:23.727Z,2.00
2018-12-14T22:46:49.867Z,2.20
2018-12-14T22:49:16.023Z,1.80
2018-12-14T22:51:42.154Z,1.80
2018-12-14T22:54:08.342Z,2.00
2018-12-14T22:56:34.487Z,1.90
2018-12-14T22:59:00.615Z,1.80
2018-12-14T23:01:26.912Z,1.80
2018-12-14T23:03:53.048Z,1.87
2018-12-14T23:06:19.187Z,2.23
2018-12-14T23:08:45.310Z,2.00
2018-12-14T23:11:11.460Z,2.40
2018-12-14T23:13:37.597Z,2.30
2018-12-14T23:16:03.723Z,2.13
2018-12-14T23:18:29.840Z,2.00
2018-12-14T23:20:55.980Z,2.30
2018-12-14T23:23:22.151Z,2.10
2018-12-14T23:25:48.617Z,2.17
2018-12-14T23:28:15.870Z,2.20
2018-12-14T23:30:42.020Z,1.87
2018-12-14T23:33:08.168Z,2.00
2018-12-14T23:35:34.337Z,1.60
2018-12-14T23:38:00.500Z,2.00
2018-12-14T23:40:26.651Z,1.90
2018-12-14T23:42:52.810Z,2.03
2018-12-14T23:45:18.919Z,1.53
2018-12-14T23:47:45.091Z,1.60
2018-12-14T23:50:11.251Z,1.70
2018-12-14T23:52:37.420Z,1.37
2018-12-14T23:55:03.714Z,1.77
2018-12-14T23:57:29.866Z,1.60
2018-12-14T23:59:56.003Z,2.20
